Flight Track Log - Related Links

Times and Time Zones

All times are in EDT time to prevent confusion due to time zone crossing. See the N9065M flight status page for this flight to view local times or setup timezone preferences in your user account.

Time Position Orientation Groundspeed Altitude Reporting Facility
EDT Latitude Longitude Course Direction KTS MPH feet Rate Location/Type
Tue 04:55:00 PM 40.5845 -81.6208 308° West  Level FlightAware Approximate
Tue 04:56:00 PM 40.6043 -81.6547 308° West  Level FlightAware Approximate
Tue 04:57:00 PM 40.6241 -81.6887 308° West  Level FlightAware Approximate
Tue 04:58:00 PM 40.6438 -81.7226 308° West  Level FlightAware Approximate
Tue 04:59:00 PM 40.6636 -81.7566 307° West  Level FlightAware Approximate
Tue 05:00:00 PM 40.6833 -81.7906 307° West  Level FlightAware Approximate
Tue 05:01:00 PM 40.7031 -81.8246 307° West  Level FlightAware Approximate
Tue 05:02:00 PM 40.7228 -81.8586 307° West  Level FlightAware Approximate
Tue 05:03:00 PM 40.7425 -81.8927 307° West  Level FlightAware Approximate
Tue 05:04:00 PM 40.7622 -81.9267 307° West  Level FlightAware Approximate
Tue 05:05:00 PM 40.7819 -81.9608 307° West  Level FlightAware Approximate
Tue 05:06:00 PM 40.8016 -81.9949 307° West  Level FlightAware Approximate
Tue 05:07:00 PM 40.8213 -82.0291 307° West  Level FlightAware Approximate
Tue 05:08:00 PM 40.8410 -82.0631 308° West  Level FlightAware Approximate
Tue 05:09:00 PM 40.8610 -82.0970 308° West  Level FlightAware Approximate
Tue 05:10:00 PM 40.8809 -82.1310 308° West  Level FlightAware Approximate
Tue 05:11:00 PM 40.9008 -82.1649 308° West  Level FlightAware Approximate
Tue 05:12:00 PM 40.9207 -82.1989 308° West  Level FlightAware Approximate
Tue 05:13:00 PM 40.9406 -82.2329 308° West  Level FlightAware Approximate
Tue 05:14:00 PM 40.9604 -82.2669 308° West  Level FlightAware Approximate
Tue 05:15:00 PM 40.9803 -82.3009 308° West  Level FlightAware Approximate
Tue 05:16:00 PM 41.0001 -82.3350 308° West  Level FlightAware Approximate
Tue 05:17:00 PM 41.0200 -82.3690 308° West  Level FlightAware Approximate
Tue 05:18:00 PM 41.0398 -82.4031 308° West  Level FlightAware Approximate
Tue 05:19:00 PM 41.0596 -82.4373 308° West  Level FlightAware Approximate
Tue 05:20:00 PM 41.0794 -82.4714 308° West  Level FlightAware Approximate
Tue 05:21:00 PM 41.0992 -82.5056 308° West  Level FlightAware Approximate
Tue 05:22:00 PM 41.1190 -82.5397 308° West  Level FlightAware Approximate
Tue 05:23:00 PM 41.1388 -82.5739 308° West  Level FlightAware Approximate
Tue 05:24:00 PM 41.1585 -82.6082 308° West  Level FlightAware Approximate
Tue 05:25:00 PM 41.1783 -82.6424 307° West  Level FlightAware Approximate
Tue 05:26:00 PM 41.1980 -82.6767 307° West  Level FlightAware Approximate
Tue 05:27:00 PM 41.2178 -82.7109 307° West  Level FlightAware Approximate
Tue 05:28:00 PM 41.2375 -82.7452 307° West  Level FlightAware Approximate
Tue 05:29:00 PM 41.2572 -82.7796 307° West  Level FlightAware Approximate
Tue 05:30:00 PM 41.2769 -82.8139 307° West  Level FlightAware Approximate
Tue 05:31:00 PM 41.2966 -82.8483 307° West  Level FlightAware Approximate
Tue 05:32:00 PM 41.3163 -82.8826 307° West  Level FlightAware Approximate
Tue 05:33:00 PM 41.3351 -82.9178 305° West  Level FlightAware Approximate
Tue 05:34:00 PM 41.3539 -82.9531 305° West  Level FlightAware Approximate
Tue 05:35:00 PM 41.3727 -82.9884 305° West  Level FlightAware Approximate
Tue 05:36:00 PM 41.3915 -83.0237 305° West  Level FlightAware Approximate
Tue 05:37:00 PM 41.4103 -83.0590 305° West  Level FlightAware Approximate
Tue 05:38:00 PM 41.4291 -83.0944 305° West  Level FlightAware Approximate
Tue 05:39:00 PM 41.4478 -83.1297 305° West  Level FlightAware Approximate
Tue 05:40:00 PM 41.4665 -83.1651 305° West  Level FlightAware Approximate
Tue 05:41:00 PM 41.4853 -83.2005 305° West  Level FlightAware Approximate
Tue 05:42:00 PM 41.5040 -83.2359 305° West  Level FlightAware Approximate
Tue 05:43:00 PM 41.5227 -83.2714 305° West  Level FlightAware Approximate
Tue 05:44:00 PM 41.5414 -83.3068 305° West  Level FlightAware Approximate
Tue 05:45:00 PM 41.5601 -83.3423 305° West  Level FlightAware Approximate
Tue 05:46:00 PM 41.5788 -83.3779 305° West  Level FlightAware Approximate
Tue 05:47:00 PM 41.5974 -83.4134 305° West  Level FlightAware Approximate
Tue 05:48:00 PM 41.6161 -83.4489 305° West  Level FlightAware Approximate

Login

Don't have an account? Register now (free) for customized features, flight alerts, and more!